Terminal Aerodrome Forecast
Issued by NWS

Home | Current Version | Previous Version | Text Only | Print | Product List | Glossary On
Versions: 1 2 3 4 5 6 7 8 9 10 11 12 13 14
327
FTUS43 KPAH 301216 AAA
TAFCGI
TAF AMD
KCGI 301216Z 3012/0112 12010KT 5SM -SHRA BR SCT015 OVC080
      TEMPO 3012/3014 3SM -TSRA BR BKN007CB
     FM301400 15012G18KT P6SM SCT025 BKN150
     FM302200 18006KT P6SM SCT040 BKN250 PROB30 0100/0106 4SM TSRA
      BKN035CB
     FM010600 22003KT 4SM BR BKN007=

USA.gov is the U.S. government's official web portal to all federal, state and local government web resources and services.